sensor_id;sensor_type;location;lat;lon;timestamp;temperature;humidity
3874;DHT22;1952;50.872;6.692;2022-07-23T00:48:06;18.70;99.90
3874;DHT22;1952;50.872;6.692;2022-07-23T00:50:39;19.10;99.90
3874;DHT22;1952;50.872;6.692;2022-07-23T01:00:42;18.70;99.90
3874;DHT22;1952;50.872;6.692;2022-07-23T01:03:17;18.90;99.90
3874;DHT22;1952;50.872;6.692;2022-07-23T01:11:04;18.50;99.90
3874;DHT22;1952;50.872;6.692;2022-07-23T01:16:21;18.10;99.90
3874;DHT22;1952;50.872;6.692;2022-07-23T01:18:50;17.90;99.90
3874;DHT22;1952;50.872;6.692;2022-07-23T01:21:24;17.90;99.90
3874;DHT22;1952;50.872;6.692;2022-07-23T01:23:55;17.90;99.90
3874;DHT22;1952;50.872;6.692;2022-07-23T01:26:28;17.80;99.90
3874;DHT22;1952;50.872;6.692;2022-07-23T01:31:24;17.70;99.90
3874;DHT22;1952;50.872;6.692;2022-07-23T01:33:57;17.60;99.90
3874;DHT22;1952;50.872;6.692;2022-07-23T01:36:48;17.50;99.90
3874;DHT22;1952;50.872;6.692;2022-07-23T01:39:26;17.40;99.90
3874;DHT22;1952;50.872;6.692;2022-07-23T01:47:45;17.30;99.90
3874;DHT22;1952;50.872;6.692;2022-07-23T01:50:13;17.20;99.90
3874;DHT22;1952;50.872;6.692;2022-07-23T01:57:45;17.10;99.90
3874;DHT22;1952;50.872;6.692;2022-07-23T02:00:13;17.00;99.90
3874;DHT22;1952;50.872;6.692;2022-07-23T02:02:41;16.80;99.90
3874;DHT22;1952;50.872;6.692;2022-07-23T02:05:11;16.70;99.90
3874;DHT22;1952;50.872;6.692;2022-07-23T02:12:40;16.60;99.90
3874;DHT22;1952;50.872;6.692;2022-07-23T02:15:08;16.70;99.90
3874;DHT22;1952;50.872;6.692;2022-07-23T02:20:12;16.70;99.90
3874;DHT22;1952;50.872;6.692;2022-07-23T02:22:40;16.70;99.90
3874;DHT22;1952;50.872;6.692;2022-07-23T02:30:11;16.50;99.90
3874;DHT22;1952;50.872;6.692;2022-07-23T02:35:16;16.40;99.90
3874;DHT22;1952;50.872;6.692;2022-07-23T02:37:49;16.40;99.90
3874;DHT22;1952;50.872;6.692;2022-07-23T02:40:17;16.30;99.90
3874;DHT22;1952;50.872;6.692;2022-07-23T02:42:45;16.20;99.90
3874;DHT22;1952;50.872;6.692;2022-07-23T02:50:16;15.90;99.90
3874;DHT22;1952;50.872;6.692;2022-07-23T02:52:44;16.00;99.90
3874;DHT22;1952;50.872;6.692;2022-07-23T03:05:16;15.90;99.90
3874;DHT22;1952;50.872;6.692;2022-07-23T03:07:44;15.90;99.90
3874;DHT22;1952;50.872;6.692;2022-07-23T03:17:47;15.90;99.90
3874;DHT22;1952;50.872;6.692;2022-07-23T03:20:16;16.00;99.90
3874;DHT22;1952;50.872;6.692;2022-07-23T03:35:17;15.90;99.90
3874;DHT22;1952;50.872;6.692;2022-07-23T03:52:47;15.60;99.90
3874;DHT22;1952;50.872;6.692;2022-07-23T03:55:15;15.50;99.90
3874;DHT22;1952;50.872;6.692;2022-07-23T03:57:44;15.50;99.90
3874;DHT22;1952;50.872;6.692;2022-07-23T04:00:12;15.50;99.90
3874;DHT22;1952;50.872;6.692;2022-07-23T04:10:12;15.60;99.90
3874;DHT22;1952;50.872;6.692;2022-07-23T04:15:13;15.70;99.90
3874;DHT22;1952;50.872;6.692;2022-07-23T04:25:13;16.10;99.90
3874;DHT22;1952;50.872;6.692;2022-07-23T04:27:43;16.00;99.90
3874;DHT22;1952;50.872;6.692;2022-07-23T04:30:11;16.20;99.90
3874;DHT22;1952;50.872;6.692;2022-07-23T04:32:39;16.20;99.90
3874;DHT22;1952;50.872;6.692;2022-07-23T04:35:12;16.30;99.90
3874;DHT22;1952;50.872;6.692;2022-07-23T04:40:14;16.60;99.90
3874;DHT22;1952;50.872;6.692;2022-07-23T04:42:42;16.80;99.90
3874;DHT22;1952;50.872;6.692;2022-07-23T04:45:10;16.90;99.90
3874;DHT22;1952;50.872;6.692;2022-07-23T04:50:08;17.30;99.90
3874;DHT22;1952;50.872;6.692;2022-07-23T04:52:36;17.40;99.90
3874;DHT22;1952;50.872;6.692;2022-07-23T04:55:05;17.50;99.90
3874;DHT22;1952;50.872;6.692;2022-07-23T04:57:39;17.60;99.90
3874;DHT22;1952;50.872;6.692;2022-07-23T05:00:08;17.70;99.90
3874;DHT22;1952;50.872;6.692;2022-07-23T05:02:37;18.00;99.90
3874;DHT22;1952;50.872;6.692;2022-07-23T05:05:05;18.20;99.90
3874;DHT22;1952;50.872;6.692;2022-07-23T05:10:07;18.80;99.90
3874;DHT22;1952;50.872;6.692;2022-07-23T05:15:06;19.20;99.90
3874;DHT22;1952;50.872;6.692;2022-07-23T05:17:39;19.50;99.90
3874;DHT22;1952;50.872;6.692;2022-07-23T05:20:07;19.80;99.90
3874;DHT22;1952;50.872;6.692;2022-07-23T05:25:04;20.30;99.90
3874;DHT22;1952;50.872;6.692;2022-07-23T05:30:09;20.70;99.90
3874;DHT22;1952;50.872;6.692;2022-07-23T05:35:07;20.80;99.90
3874;DHT22;1952;50.872;6.692;2022-07-23T05:40:04;20.50;99.90
3874;DHT22;1952;50.872;6.692;2022-07-23T05:45:09;19.80;99.90
3874;DHT22;1952;50.872;6.692;2022-07-23T05:47:42;19.80;99.90
3874;DHT22;1952;50.872;6.692;2022-07-23T05:50:11;20.10;99.90
3874;DHT22;1952;50.872;6.692;2022-07-23T06:33:50;21.60;99.90
3874;DHT22;1952;50.872;6.692;2022-07-23T06:36:18;22.10;99.90
3874;DHT22;1952;50.872;6.692;2022-07-23T06:38:46;22.20;99.90
3874;DHT22;1952;50.872;6.692;2022-07-23T06:41:14;22.80;95.80
3874;DHT22;1952;50.872;6.692;2022-07-23T06:43:47;22.90;89.10
3874;DHT22;1952;50.872;6.692;2022-07-23T06:46:20;22.70;84.30
3874;DHT22;1952;50.872;6.692;2022-07-23T06:48:50;22.70;91.50
3874;DHT22;1952;50.872;6.692;2022-07-23T06:51:18;23.20;71.70
3874;DHT22;1952;50.872;6.692;2022-07-23T06:53:46;23.70;56.60
3874;DHT22;1952;50.872;6.692;2022-07-23T06:56:14;24.10;25.00
3874;DHT22;1952;50.872;6.692;2022-07-23T06:58:47;24.30;8.00
3874;DHT22;1952;50.872;6.692;2022-07-23T07:01:20;22.90;4.10
3874;DHT22;1952;50.872;6.692;2022-07-23T07:03:49;25.00;1.00
3874;DHT22;1952;50.872;6.692;2022-07-23T07:06:18;24.90;1.00
3874;DHT22;1952;50.872;6.692;2022-07-23T07:08:46;25.30;1.00
3874;DHT22;1952;50.872;6.692;2022-07-23T07:11:27;25.20;1.00
3874;DHT22;1952;50.872;6.692;2022-07-23T07:13:55;25.60;1.00
3874;DHT22;1952;50.872;6.692;2022-07-23T07:16:24;26.20;99.90
3874;DHT22;1952;50.872;6.692;2022-07-23T07:18:59;26.40;1.00
3874;DHT22;1952;50.872;6.692;2022-07-23T07:21:27;26.80;1.00
3874;DHT22;1952;50.872;6.692;2022-07-23T07:23:56;26.80;99.90
3874;DHT22;1952;50.872;6.692;2022-07-23T07:26:29;26.70;1.00
3874;DHT22;1952;50.872;6.692;2022-07-23T07:28:57;27.00;1.00
3874;DHT22;1952;50.872;6.692;2022-07-23T07:31:26;27.30;99.90
3874;DHT22;1952;50.872;6.692;2022-07-23T07:33:55;27.60;99.90
3874;DHT22;1952;50.872;6.692;2022-07-23T07:36:31;27.50;1.00
3874;DHT22;1952;50.872;6.692;2022-07-23T07:39:00;27.60;1.00
3874;DHT22;1952;50.872;6.692;2022-07-23T07:41:29;27.10;1.00
3874;DHT22;1952;50.872;6.692;2022-07-23T07:43:57;27.20;1.00
3874;DHT22;1952;50.872;6.692;2022-07-23T07:46:26;27.40;1.00
3874;DHT22;1952;50.872;6.692;2022-07-23T07:49:00;27.80;99.90
3874;DHT22;1952;50.872;6.692;2022-07-23T07:51:28;27.80;99.90
3874;DHT22;1952;50.872;6.692;2022-07-23T07:53:57;28.40;99.90
3874;DHT22;1952;50.872;6.692;2022-07-23T07:56:27;28.70;1.00
3874;DHT22;1952;50.872;6.692;2022-07-23T07:59:00;28.70;1.00
3874;DHT22;1952;50.872;6.692;2022-07-23T08:01:29;29.10;1.00
3874;DHT22;1952;50.872;6.692;2022-07-23T08:04:02;29.20;1.00
3874;DHT22;1952;50.872;6.692;2022-07-23T08:06:32;29.20;1.00
3874;DHT22;1952;50.872;6.692;2022-07-23T08:09:02;29.20;99.90
3874;DHT22;1952;50.872;6.692;2022-07-23T08:11:30;29.80;99.90
3874;DHT22;1952;50.872;6.692;2022-07-23T08:14:03;30.10;99.90
3874;DHT22;1952;50.872;6.692;2022-07-23T08:16:36;29.90;99.90
3874;DHT22;1952;50.872;6.692;2022-07-23T08:19:09;30.80;99.90
3874;DHT22;1952;50.872;6.692;2022-07-23T08:21:38;31.10;99.90
3874;DHT22;1952;50.872;6.692;2022-07-23T08:24:11;31.40;99.90
3874;DHT22;1952;50.872;6.692;2022-07-23T08:26:45;31.60;99.90
3874;DHT22;1952;50.872;6.692;2022-07-23T08:29:13;34.10;99.90
3874;DHT22;1952;50.872;6.692;2022-07-23T08:31:46;31.40;99.90
3874;DHT22;1952;50.872;6.692;2022-07-23T08:34:15;34.40;99.90
3874;DHT22;1952;50.872;6.692;2022-07-23T08:36:43;31.30;99.90
3874;DHT22;1952;50.872;6.692;2022-07-23T08:39:12;31.70;99.90
3874;DHT22;1952;50.872;6.692;2022-07-23T08:41:45;31.80;99.90
3874;DHT22;1952;50.872;6.692;2022-07-23T08:44:16;32.50;99.90
3874;DHT22;1952;50.872;6.692;2022-07-23T08:46:49;32.50;99.90
3874;DHT22;1952;50.872;6.692;2022-07-23T08:49:25;32.50;99.90
3874;DHT22;1952;50.872;6.692;2022-07-23T08:51:57;32.20;99.90
3874;DHT22;1952;50.872;6.692;2022-07-23T08:54:27;32.30;99.90
3874;DHT22;1952;50.872;6.692;2022-07-23T08:56:56;32.00;99.90
3874;DHT22;1952;50.872;6.692;2022-07-23T08:59:29;31.90;99.90
3874;DHT22;1952;50.872;6.692;2022-07-23T09:01:58;31.90;99.90
3874;DHT22;1952;50.872;6.692;2022-07-23T09:04:33;32.00;99.90
3874;DHT22;1952;50.872;6.692;2022-07-23T09:07:02;31.70;99.90
3874;DHT22;1952;50.872;6.692;2022-07-23T09:09:37;31.40;99.90
3874;DHT22;1952;50.872;6.692;2022-07-23T09:12:08;31.40;99.90
3874;DHT22;1952;50.872;6.692;2022-07-23T09:14:43;31.10;99.90
3874;DHT22;1952;50.872;6.692;2022-07-23T09:17:22;31.80;99.90
3874;DHT22;1952;50.872;6.692;2022-07-23T09:19:50;32.30;99.90
3874;DHT22;1952;50.872;6.692;2022-07-23T09:22:21;32.80;99.90
3874;DHT22;1952;50.872;6.692;2022-07-23T09:25:09;32.70;99.90
3874;DHT22;1952;50.872;6.692;2022-07-23T09:27:49;32.40;99.90
3874;DHT22;1952;50.872;6.692;2022-07-23T09:30:27;32.20;99.90
3874;DHT22;1952;50.872;6.692;2022-07-23T09:33:05;31.70;99.90
3874;DHT22;1952;50.872;6.692;2022-07-23T09:35:49;31.20;99.90
3874;DHT22;1952;50.872;6.692;2022-07-23T09:38:20;31.70;99.90
3874;DHT22;1952;50.872;6.692;2022-07-23T09:41:05;31.70;99.90
3874;DHT22;1952;50.872;6.692;2022-07-23T09:43:34;32.60;99.90
3874;DHT22;1952;50.872;6.692;2022-07-23T09:46:20;33.00;99.90
3874;DHT22;1952;50.872;6.692;2022-07-23T09:48:50;31.90;99.90
3874;DHT22;1952;50.872;6.692;2022-07-23T09:51:19;31.20;99.90
3874;DHT22;1952;50.872;6.692;2022-07-23T09:54:04;31.70;99.90
3874;DHT22;1952;50.872;6.692;2022-07-23T09:56:43;32.60;99.90
3874;DHT22;1952;50.872;6.692;2022-07-23T09:59:17;32.90;99.90
3874;DHT22;1952;50.872;6.692;2022-07-23T10:01:46;33.10;99.90
3874;DHT22;1952;50.872;6.692;2022-07-23T10:04:15;32.90;99.90
3874;DHT22;1952;50.872;6.692;2022-07-23T10:06:45;32.60;98.50
3874;DHT22;1952;50.872;6.692;2022-07-23T10:09:29;32.40;97.80
3874;DHT22;1952;50.872;6.692;2022-07-23T10:12:02;33.00;91.60
3874;DHT22;1952;50.872;6.692;2022-07-23T10:14:51;33.10;96.70
3874;DHT22;1952;50.872;6.692;2022-07-23T10:17:18;32.40;92.10
3874;DHT22;1952;50.872;6.692;2022-07-23T10:19:47;32.90;99.20
3874;DHT22;1952;50.872;6.692;2022-07-23T10:22:22;32.40;88.70
3874;DHT22;1952;50.872;6.692;2022-07-23T10:25:05;31.80;78.10
3874;DHT22;1952;50.872;6.692;2022-07-23T10:27:55;31.90;79.40
3874;DHT22;1952;50.872;6.692;2022-07-23T10:30:33;32.10;64.50
3874;DHT22;1952;50.872;6.692;2022-07-23T10:33:25;32.70;66.70
3874;DHT22;1952;50.872;6.692;2022-07-23T10:36:08;33.00;77.30
3874;DHT22;1952;50.872;6.692;2022-07-23T10:38:52;33.10;72.50
3874;DHT22;1952;50.872;6.692;2022-07-23T10:41:33;32.60;63.60
3874;DHT22;1952;50.872;6.692;2022-07-23T10:44:11;31.80;57.00
3874;DHT22;1952;50.872;6.692;2022-07-23T10:46:56;31.10;53.80
3874;DHT22;1952;50.872;6.692;2022-07-23T10:49:35;31.70;59.60
3874;DHT22;1952;50.872;6.692;2022-07-23T10:52:23;32.20;64.30
3874;DHT22;1952;50.872;6.692;2022-07-23T10:55:39;32.70;56.40
3874;DHT22;1952;50.872;6.692;2022-07-23T10:58:08;33.20;62.90
3874;DHT22;1952;50.872;6.692;2022-07-23T11:00:38;32.90;54.90
3874;DHT22;1952;50.872;6.692;2022-07-23T11:03:30;32.50;49.70
3874;DHT22;1952;50.872;6.692;2022-07-23T11:05:59;33.10;51.70
3874;DHT22;1952;50.872;6.692;2022-07-23T11:08:27;33.60;52.60
3874;DHT22;1952;50.872;6.692;2022-07-23T11:11:10;33.20;47.90
3874;DHT22;1952;50.872;6.692;2022-07-23T11:13:41;33.20;45.50
3874;DHT22;1952;50.872;6.692;2022-07-23T11:16:24;33.10;42.80
3874;DHT22;1952;50.872;6.692;2022-07-23T11:19:03;32.90;40.50
3874;DHT22;1952;50.872;6.692;2022-07-23T11:21:48;33.30;41.20
3874;DHT22;1952;50.872;6.692;2022-07-23T11:24:31;33.10;36.00
3874;DHT22;1952;50.872;6.692;2022-07-23T11:27:36;33.00;33.70
3874;DHT22;1952;50.872;6.692;2022-07-23T11:30:37;32.90;32.30
3874;DHT22;1952;50.872;6.692;2022-07-23T11:33:21;33.10;32.30
3874;DHT22;1952;50.872;6.692;2022-07-23T11:36:00;33.10;30.20
3874;DHT22;1952;50.872;6.692;2022-07-23T11:38:31;31.90;25.90
3874;DHT22;1952;50.872;6.692;2022-07-23T11:41:02;31.60;23.80
3874;DHT22;1952;50.872;6.692;2022-07-23T11:43:37;30.50;20.00
3874;DHT22;1952;50.872;6.692;2022-07-23T11:46:12;29.80;16.70
3874;DHT22;1952;50.872;6.692;2022-07-23T11:49:03;30.50;21.90
3874;DHT22;1952;50.872;6.692;2022-07-23T11:51:30;31.30;29.00
3874;DHT22;1952;50.872;6.692;2022-07-23T11:54:05;32.20;33.10
3874;DHT22;1952;50.872;6.692;2022-07-23T12:44:15;34.00;1.00
3874;DHT22;1952;50.872;6.692;2022-07-23T12:46:49;33.50;1.00
3874;DHT22;1952;50.872;6.692;2022-07-23T12:49:25;33.50;1.00
3874;DHT22;1952;50.872;6.692;2022-07-23T12:52:15;33.70;1.00
3874;DHT22;1952;50.872;6.692;2022-07-23T12:54:59;33.60;1.00
3874;DHT22;1952;50.872;6.692;2022-07-23T12:57:44;33.00;1.00
3874;DHT22;1952;50.872;6.692;2022-07-23T13:00:17;32.80;1.00
3874;DHT22;1952;50.872;6.692;2022-07-23T13:02:46;33.60;1.00
3874;DHT22;1952;50.872;6.692;2022-07-23T13:05:15;33.70;1.00
3874;DHT22;1952;50.872;6.692;2022-07-23T13:07:43;33.30;1.00
3874;DHT22;1952;50.872;6.692;2022-07-23T13:10:11;33.10;1.00
3874;DHT22;1952;50.872;6.692;2022-07-23T13:12:44;33.10;1.00
3874;DHT22;1952;50.872;6.692;2022-07-23T13:15:14;32.80;1.00
3874;DHT22;1952;50.872;6.692;2022-07-23T13:17:42;34.60;1.00
3874;DHT22;1952;50.872;6.692;2022-07-23T13:20:12;33.10;1.00
3874;DHT22;1952;50.872;6.692;2022-07-23T13:22:43;32.80;1.00
3874;DHT22;1952;50.872;6.692;2022-07-23T13:25:11;32.90;1.00
3874;DHT22;1952;50.872;6.692;2022-07-23T13:27:56;33.00;1.00
3874;DHT22;1952;50.872;6.692;2022-07-23T13:30:27;33.10;1.00
3874;DHT22;1952;50.872;6.692;2022-07-23T13:32:56;32.60;1.00
3874;DHT22;1952;50.872;6.692;2022-07-23T13:35:35;31.90;1.00
3874;DHT22;1952;50.872;6.692;2022-07-23T13:38:10;31.50;1.00
3874;DHT22;1952;50.872;6.692;2022-07-23T13:40:45;31.80;1.00
3874;DHT22;1952;50.872;6.692;2022-07-23T13:47:18;32.60;1.00
3874;DHT22;1952;50.872;6.692;2022-07-23T13:52:51;31.10;1.00
3874;DHT22;1952;50.872;6.692;2022-07-23T13:56:01;31.40;1.00
3874;DHT22;1952;50.872;6.692;2022-07-23T13:58:55;31.80;1.00
3874;DHT22;1952;50.872;6.692;2022-07-23T14:01:57;32.20;1.00
3874;DHT22;1952;50.872;6.692;2022-07-23T14:05:23;32.10;1.00
3874;DHT22;1952;50.872;6.692;2022-07-23T14:08:20;32.70;1.00
3874;DHT22;1952;50.872;6.692;2022-07-23T14:11:16;32.90;1.00
3874;DHT22;1952;50.872;6.692;2022-07-23T14:36:57;32.20;1.00
3874;DHT22;1952;50.872;6.692;2022-07-23T14:44:28;31.90;1.00
3874;DHT22;1952;50.872;6.692;2022-07-23T14:49:27;31.80;1.00
3874;DHT22;1952;50.872;6.692;2022-07-23T14:51:57;32.00;1.00
3874;DHT22;1952;50.872;6.692;2022-07-23T14:54:30;31.70;1.00
3874;DHT22;1952;50.872;6.692;2022-07-23T14:59:27;32.10;1.00
3874;DHT22;1952;50.872;6.692;2022-07-23T15:07:05;31.80;1.00
3874;DHT22;1952;50.872;6.692;2022-07-23T15:12:04;31.00;1.00
3874;DHT22;1952;50.872;6.692;2022-07-23T15:22:10;30.80;1.00
3874;DHT22;1952;50.872;6.692;2022-07-23T15:37:10;30.80;1.00
3874;DHT22;1952;50.872;6.692;2022-07-23T15:52:23;31.20;1.00
3874;DHT22;1952;50.872;6.692;2022-07-23T16:04:55;30.70;1.00
3874;DHT22;1952;50.872;6.692;2022-07-23T16:07:25;30.30;1.00
3874;DHT22;1952;50.872;6.692;2022-07-23T16:17:19;29.80;1.00
3874;DHT22;1952;50.872;6.692;2022-07-23T16:27:31;29.50;1.00
3874;DHT22;1952;50.872;6.692;2022-07-23T16:35:06;29.70;1.00
3874;DHT22;1952;50.872;6.692;2022-07-23T16:37:41;29.60;1.00
3874;DHT22;1952;50.872;6.692;2022-07-23T16:40:11;29.60;1.00
3874;DHT22;1952;50.872;6.692;2022-07-23T16:47:43;29.20;1.00
3874;DHT22;1952;50.872;6.692;2022-07-23T16:52:46;29.20;1.00
3874;DHT22;1952;50.872;6.692;2022-07-23T17:05:19;29.10;1.00
3874;DHT22;1952;50.872;6.692;2022-07-23T17:07:53;29.00;1.00
3874;DHT22;1952;50.872;6.692;2022-07-23T17:40:28;27.80;7.80
3874;DHT22;1952;50.872;6.692;2022-07-23T18:46:43;25.10;1.00
3874;DHT22;1952;50.872;6.692;2022-07-23T18:49:39;24.90;1.00
3874;DHT22;1952;50.872;6.692;2022-07-23T19:06:44;24.30;43.80
3874;DHT22;1952;50.872;6.692;2022-07-23T19:09:40;24.30;99.90
3874;DHT22;1952;50.872;6.692;2022-07-23T19:15:12;24.10;1.00
3874;DHT22;1952;50.872;6.692;2022-07-23T19:18:09;24.00;99.90
3874;DHT22;1952;50.872;6.692;2022-07-23T19:24:12;23.90;1.00
3874;DHT22;1952;50.872;6.692;2022-07-23T19:27:03;23.80;99.90
3874;DHT22;1952;50.872;6.692;2022-07-23T19:58:40;23.00;1.00
3874;DHT22;1952;50.872;6.692;2022-07-23T20:06:52;22.70;10.10
3874;DHT22;1952;50.872;6.692;2022-07-23T20:22:19;22.50;1.00
3874;DHT22;1952;50.872;6.692;2022-07-23T20:25:15;22.20;1.00
3874;DHT22;1952;50.872;6.692;2022-07-23T20:30:51;22.00;1.00
3874;DHT22;1952;50.872;6.692;2022-07-23T20:39:07;21.70;1.00
3874;DHT22;1952;50.872;6.692;2022-07-23T20:44:24;21.90;1.00
3874;DHT22;1952;50.872;6.692;2022-07-23T20:49:40;21.50;1.00
3874;DHT22;1952;50.872;6.692;2022-07-23T20:55:45;21.50;18.50
3874;DHT22;1952;50.872;6.692;2022-07-23T20:58:46;21.40;12.80
3874;DHT22;1952;50.872;6.692;2022-07-23T21:19:28;20.70;54.20
3874;DHT22;1952;50.872;6.692;2022-07-23T21:22:33;20.60;66.30
3874;DHT22;1952;50.872;6.692;2022-07-23T21:40:00;20.60;68.80
3874;DHT22;1952;50.872;6.692;2022-07-23T21:45:04;20.50;78.70
3874;DHT22;1952;50.872;6.692;2022-07-23T21:55:40;20.00;88.70
3874;DHT22;1952;50.872;6.692;2022-07-23T22:00:38;19.20;87.60
3874;DHT22;1952;50.872;6.692;2022-07-23T22:11:02;19.60;97.60
3874;DHT22;1952;50.872;6.692;2022-07-23T22:16:03;19.60;99.90
3874;DHT22;1952;50.872;6.692;2022-07-23T22:29:36;19.50;93.80
3874;DHT22;1952;50.872;6.692;2022-07-23T22:34:56;19.30;93.80
3874;DHT22;1952;50.872;6.692;2022-07-23T22:37:40;19.70;99.90
3874;DHT22;1952;50.872;6.692;2022-07-23T23:24:48;19.20;99.80
3874;DHT22;1952;50.872;6.692;2022-07-23T23:27:21;17.60;99.90
3874;DHT22;1952;50.872;6.692;2022-07-23T23:29:54;19.20;99.90
3874;DHT22;1952;50.872;6.692;2022-07-23T23:32:22;19.30;99.90
3874;DHT22;1952;50.872;6.692;2022-07-23T23:34:51;19.20;99.90
3874;DHT22;1952;50.872;6.692;2022-07-23T23:37:20;19.10;99.90
3874;DHT22;1952;50.872;6.692;2022-07-23T23:39:50;19.50;99.00
3874;DHT22;1952;50.872;6.692;2022-07-23T23:44:52;19.10;96.00
3874;DHT22;1952;50.872;6.692;2022-07-23T23:47:25;19.10;96.80
3874;DHT22;1952;50.872;6.692;2022-07-23T23:49:53;19.00;99.90
3874;DHT22;1952;50.872;6.692;2022-07-23T23:52:22;18.80;99.90
3874;DHT22;1952;50.872;6.692;2022-07-23T23:54:51;20.30;99.90
